sensor_id;sensor_type;location;lat;lon;timestamp;P1;durP1;ratioP1;P2;durP2;ratioP2
6937;SDS011;40040;42.706;23.372;2022-12-07T00:01:23;29.53;;;13.63;;
6937;SDS011;40040;42.706;23.372;2022-12-07T00:03:54;31.53;;;15.20;;
6937;SDS011;40040;42.706;23.372;2022-12-07T00:06:26;34.63;;;15.00;;
6937;SDS011;40040;42.706;23.372;2022-12-07T00:08:53;29.30;;;14.40;;
6937;SDS011;40040;42.706;23.372;2022-12-07T00:11:20;29.67;;;15.20;;
6937;SDS011;40040;42.706;23.372;2022-12-07T00:13:50;33.50;;;14.90;;
6937;SDS011;40040;42.706;23.372;2022-12-07T00:16:19;27.30;;;13.17;;
6937;SDS011;40040;42.706;23.372;2022-12-07T00:18:47;27.73;;;12.37;;
6937;SDS011;40040;42.706;23.372;2022-12-07T00:21:16;27.27;;;12.87;;
6937;SDS011;40040;42.706;23.372;2022-12-07T00:23:45;29.83;;;11.60;;
6937;SDS011;40040;42.706;23.372;2022-12-07T00:26:13;27.97;;;13.40;;
6937;SDS011;40040;42.706;23.372;2022-12-07T00:28:44;28.43;;;12.30;;
6937;SDS011;40040;42.706;23.372;2022-12-07T00:31:12;32.17;;;13.17;;
6937;SDS011;40040;42.706;23.372;2022-12-07T00:33:40;30.47;;;13.73;;
6937;SDS011;40040;42.706;23.372;2022-12-07T00:36:07;30.50;;;14.10;;
6937;SDS011;40040;42.706;23.372;2022-12-07T00:38:37;30.90;;;13.53;;
6937;SDS011;40040;42.706;23.372;2022-12-07T00:41:05;30.20;;;13.90;;
6937;SDS011;40040;42.706;23.372;2022-12-07T00:43:33;26.43;;;12.53;;
6937;SDS011;40040;42.706;23.372;2022-12-07T00:46:00;24.97;;;12.53;;
6937;SDS011;40040;42.706;23.372;2022-12-07T00:48:27;24.90;;;12.63;;
6937;SDS011;40040;42.706;23.372;2022-12-07T00:50:54;27.40;;;13.00;;
6937;SDS011;40040;42.706;23.372;2022-12-07T00:53:21;32.67;;;13.10;;
6937;SDS011;40040;42.706;23.372;2022-12-07T00:55:49;23.17;;;12.20;;
6937;SDS011;40040;42.706;23.372;2022-12-07T00:58:17;25.00;;;12.10;;
6937;SDS011;40040;42.706;23.372;2022-12-07T01:00:45;29.20;;;13.00;;
6937;SDS011;40040;42.706;23.372;2022-12-07T01:03:12;26.33;;;13.27;;
6937;SDS011;40040;42.706;23.372;2022-12-07T01:05:48;28.93;;;14.03;;
6937;SDS011;40040;42.706;23.372;2022-12-07T01:08:17;27.90;;;13.97;;
6937;SDS011;40040;42.706;23.372;2022-12-07T01:10:45;33.30;;;14.23;;
6937;SDS011;40040;42.706;23.372;2022-12-07T01:13:13;32.80;;;14.30;;
6937;SDS011;40040;42.706;23.372;2022-12-07T01:15:40;31.37;;;14.73;;
6937;SDS011;40040;42.706;23.372;2022-12-07T01:18:07;31.03;;;14.40;;
6937;SDS011;40040;42.706;23.372;2022-12-07T01:20:35;29.57;;;14.80;;
6937;SDS011;40040;42.706;23.372;2022-12-07T01:23:02;27.37;;;15.53;;
6937;SDS011;40040;42.706;23.372;2022-12-07T01:25:29;38.03;;;16.70;;
6937;SDS011;40040;42.706;23.372;2022-12-07T01:27:56;28.50;;;14.33;;
6937;SDS011;40040;42.706;23.372;2022-12-07T01:30:24;27.87;;;13.80;;
6937;SDS011;40040;42.706;23.372;2022-12-07T01:32:51;28.57;;;13.30;;
6937;SDS011;40040;42.706;23.372;2022-12-07T01:35:19;28.47;;;13.13;;
6937;SDS011;40040;42.706;23.372;2022-12-07T01:37:46;25.30;;;13.00;;
6937;SDS011;40040;42.706;23.372;2022-12-07T01:40:13;40.77;;;17.80;;
6937;SDS011;40040;42.706;23.372;2022-12-07T01:42:40;42.60;;;19.97;;
6937;SDS011;40040;42.706;23.372;2022-12-07T01:48:13;40.30;;;18.07;;
6937;SDS011;40040;42.706;23.372;2022-12-07T01:50:44;32.00;;;16.43;;
6937;SDS011;40040;42.706;23.372;2022-12-07T01:53:14;39.13;;;15.50;;
6937;SDS011;40040;42.706;23.372;2022-12-07T01:55:42;32.03;;;16.17;;
6937;SDS011;40040;42.706;23.372;2022-12-07T01:58:12;52.00;;;19.87;;
6937;SDS011;40040;42.706;23.372;2022-12-07T02:03:31;31.80;;;15.13;;
6937;SDS011;40040;42.706;23.372;2022-12-07T02:06:01;35.47;;;15.97;;
6937;SDS011;40040;42.706;23.372;2022-12-07T02:08:29;35.80;;;15.60;;
6937;SDS011;40040;42.706;23.372;2022-12-07T02:10:58;33.60;;;16.33;;
6937;SDS011;40040;42.706;23.372;2022-12-07T02:13:27;34.30;;;16.33;;
6937;SDS011;40040;42.706;23.372;2022-12-07T02:16:01;30.30;;;15.50;;
6937;SDS011;40040;42.706;23.372;2022-12-07T02:18:47;37.73;;;16.50;;
6937;SDS011;40040;42.706;23.372;2022-12-07T02:21:25;37.43;;;16.50;;
6937;SDS011;40040;42.706;23.372;2022-12-07T02:24:14;39.43;;;18.13;;
6937;SDS011;40040;42.706;23.372;2022-12-07T02:30:04;39.37;;;16.87;;
6937;SDS011;40040;42.706;23.372;2022-12-07T02:32:38;32.13;;;14.53;;
6937;SDS011;40040;42.706;23.372;2022-12-07T02:35:11;25.73;;;13.37;;
6937;SDS011;40040;42.706;23.372;2022-12-07T02:37:42;33.23;;;13.07;;
6937;SDS011;40040;42.706;23.372;2022-12-07T02:40:18;31.80;;;14.73;;
6937;SDS011;40040;42.706;23.372;2022-12-07T02:43:01;35.90;;;16.20;;
6937;SDS011;40040;42.706;23.372;2022-12-07T02:45:34;28.93;;;14.63;;
6937;SDS011;40040;42.706;23.372;2022-12-07T02:48:03;27.37;;;14.43;;
6937;SDS011;40040;42.706;23.372;2022-12-07T02:50:33;30.60;;;13.97;;
6937;SDS011;40040;42.706;23.372;2022-12-07T02:53:00;33.73;;;15.27;;
6937;SDS011;40040;42.706;23.372;2022-12-07T02:55:28;31.13;;;14.13;;
6937;SDS011;40040;42.706;23.372;2022-12-07T03:00:54;31.30;;;14.63;;
6937;SDS011;40040;42.706;23.372;2022-12-07T03:03:28;28.77;;;13.97;;
6937;SDS011;40040;42.706;23.372;2022-12-07T03:05:59;33.43;;;15.20;;
6937;SDS011;40040;42.706;23.372;2022-12-07T03:08:39;33.57;;;14.93;;
6937;SDS011;40040;42.706;23.372;2022-12-07T03:11:14;33.17;;;15.37;;
6937;SDS011;40040;42.706;23.372;2022-12-07T03:13:47;36.40;;;15.07;;
6937;SDS011;40040;42.706;23.372;2022-12-07T03:16:19;30.70;;;15.23;;
6937;SDS011;40040;42.706;23.372;2022-12-07T03:18:50;32.20;;;14.77;;
6937;SDS011;40040;42.706;23.372;2022-12-07T03:21:21;31.27;;;14.60;;
6937;SDS011;40040;42.706;23.372;2022-12-07T03:23:56;32.30;;;16.07;;
6937;SDS011;40040;42.706;23.372;2022-12-07T03:26:28;40.03;;;16.67;;
6937;SDS011;40040;42.706;23.372;2022-12-07T03:28:59;37.67;;;18.00;;
6937;SDS011;40040;42.706;23.372;2022-12-07T03:31:33;42.93;;;20.50;;
6937;SDS011;40040;42.706;23.372;2022-12-07T03:34:05;40.30;;;21.07;;
6937;SDS011;40040;42.706;23.372;2022-12-07T03:36:39;39.30;;;19.00;;
6937;SDS011;40040;42.706;23.372;2022-12-07T03:39:12;36.27;;;18.70;;
6937;SDS011;40040;42.706;23.372;2022-12-07T03:41:45;39.03;;;17.80;;
6937;SDS011;40040;42.706;23.372;2022-12-07T03:44:13;37.57;;;17.43;;
6937;SDS011;40040;42.706;23.372;2022-12-07T03:46:44;36.60;;;17.77;;
6937;SDS011;40040;42.706;23.372;2022-12-07T03:49:18;57.67;;;24.80;;
6937;SDS011;40040;42.706;23.372;2022-12-07T03:51:51;47.40;;;21.40;;
6937;SDS011;40040;42.706;23.372;2022-12-07T03:54:31;44.90;;;19.87;;
6937;SDS011;40040;42.706;23.372;2022-12-07T03:57:03;44.93;;;21.80;;
6937;SDS011;40040;42.706;23.372;2022-12-07T03:59:31;43.67;;;20.77;;
6937;SDS011;40040;42.706;23.372;2022-12-07T04:02:03;45.63;;;19.93;;
6937;SDS011;40040;42.706;23.372;2022-12-07T04:04:31;47.90;;;19.50;;
6937;SDS011;40040;42.706;23.372;2022-12-07T04:06:59;36.97;;;15.53;;
6937;SDS011;40040;42.706;23.372;2022-12-07T04:09:26;30.47;;;15.07;;
6937;SDS011;40040;42.706;23.372;2022-12-07T04:11:53;29.07;;;13.87;;
6937;SDS011;40040;42.706;23.372;2022-12-07T04:14:20;31.03;;;13.57;;
6937;SDS011;40040;42.706;23.372;2022-12-07T04:16:47;25.40;;;13.23;;
6937;SDS011;40040;42.706;23.372;2022-12-07T04:19:17;28.03;;;12.77;;
6937;SDS011;40040;42.706;23.372;2022-12-07T04:21:46;29.30;;;14.27;;
6937;SDS011;40040;42.706;23.372;2022-12-07T04:24:14;39.03;;;18.37;;
6937;SDS011;40040;42.706;23.372;2022-12-07T04:26:42;33.47;;;15.37;;
6937;SDS011;40040;42.706;23.372;2022-12-07T04:29:09;30.10;;;13.93;;
6937;SDS011;40040;42.706;23.372;2022-12-07T04:31:37;25.67;;;11.47;;
6937;SDS011;40040;42.706;23.372;2022-12-07T04:34:05;26.70;;;11.63;;
6937;SDS011;40040;42.706;23.372;2022-12-07T04:36:55;23.57;;;11.00;;
6937;SDS011;40040;42.706;23.372;2022-12-07T04:39:23;25.63;;;10.27;;
6937;SDS011;40040;42.706;23.372;2022-12-07T04:41:51;32.30;;;14.40;;
6937;SDS011;40040;42.706;23.372;2022-12-07T04:44:18;37.50;;;15.87;;
6937;SDS011;40040;42.706;23.372;2022-12-07T04:46:46;29.80;;;12.80;;
6937;SDS011;40040;42.706;23.372;2022-12-07T04:49:14;25.37;;;11.23;;
6937;SDS011;40040;42.706;23.372;2022-12-07T04:51:41;23.03;;;11.13;;
6937;SDS011;40040;42.706;23.372;2022-12-07T04:54:10;24.73;;;11.20;;
6937;SDS011;40040;42.706;23.372;2022-12-07T04:56:37;23.00;;;11.03;;
6937;SDS011;40040;42.706;23.372;2022-12-07T04:59:04;24.87;;;10.90;;
6937;SDS011;40040;42.706;23.372;2022-12-07T05:01:31;27.50;;;12.97;;
6937;SDS011;40040;42.706;23.372;2022-12-07T05:03:59;29.90;;;14.67;;
6937;SDS011;40040;42.706;23.372;2022-12-07T05:06:26;26.60;;;13.77;;
6937;SDS011;40040;42.706;23.372;2022-12-07T05:08:53;26.53;;;12.23;;
6937;SDS011;40040;42.706;23.372;2022-12-07T05:11:22;28.37;;;12.23;;
6937;SDS011;40040;42.706;23.372;2022-12-07T05:14:08;24.13;;;12.53;;
6937;SDS011;40040;42.706;23.372;2022-12-07T05:16:38;23.33;;;11.60;;
6937;SDS011;40040;42.706;23.372;2022-12-07T05:19:06;25.30;;;11.60;;
6937;SDS011;40040;42.706;23.372;2022-12-07T05:21:33;24.63;;;12.60;;
6937;SDS011;40040;42.706;23.372;2022-12-07T05:24:00;24.03;;;11.37;;
6937;SDS011;40040;42.706;23.372;2022-12-07T05:26:28;22.10;;;11.43;;
6937;SDS011;40040;42.706;23.372;2022-12-07T05:28:56;23.03;;;11.43;;
6937;SDS011;40040;42.706;23.372;2022-12-07T05:31:24;26.10;;;12.37;;
6937;SDS011;40040;42.706;23.372;2022-12-07T05:33:52;24.90;;;11.63;;
6937;SDS011;40040;42.706;23.372;2022-12-07T05:36:19;27.20;;;12.03;;
6937;SDS011;40040;42.706;23.372;2022-12-07T05:38:46;23.43;;;10.90;;
6937;SDS011;40040;42.706;23.372;2022-12-07T05:41:14;28.63;;;12.53;;
6937;SDS011;40040;42.706;23.372;2022-12-07T05:44:13;27.90;;;12.40;;
6937;SDS011;40040;42.706;23.372;2022-12-07T05:46:40;26.83;;;13.27;;
6937;SDS011;40040;42.706;23.372;2022-12-07T05:49:07;29.47;;;13.77;;
6937;SDS011;40040;42.706;23.372;2022-12-07T05:51:34;30.60;;;14.53;;
6937;SDS011;40040;42.706;23.372;2022-12-07T05:54:01;45.87;;;18.80;;
6937;SDS011;40040;42.706;23.372;2022-12-07T05:56:28;39.97;;;19.83;;
6937;SDS011;40040;42.706;23.372;2022-12-07T05:58:55;53.07;;;22.07;;
6937;SDS011;40040;42.706;23.372;2022-12-07T06:01:41;80.43;;;29.43;;
6937;SDS011;40040;42.706;23.372;2022-12-07T06:04:08;79.40;;;30.20;;
6937;SDS011;40040;42.706;23.372;2022-12-07T06:06:35;76.50;;;33.90;;
6937;SDS011;40040;42.706;23.372;2022-12-07T06:09:02;53.77;;;25.03;;
6937;SDS011;40040;42.706;23.372;2022-12-07T06:11:29;59.07;;;26.10;;
6937;SDS011;40040;42.706;23.372;2022-12-07T06:14:14;57.57;;;25.53;;
6937;SDS011;40040;42.706;23.372;2022-12-07T06:16:42;76.03;;;32.70;;
6937;SDS011;40040;42.706;23.372;2022-12-07T06:19:09;90.50;;;35.97;;
6937;SDS011;40040;42.706;23.372;2022-12-07T06:21:36;69.33;;;29.33;;
6937;SDS011;40040;42.706;23.372;2022-12-07T06:24:04;66.40;;;28.77;;
6937;SDS011;40040;42.706;23.372;2022-12-07T06:26:31;48.87;;;22.83;;
6937;SDS011;40040;42.706;23.372;2022-12-07T06:28:58;51.90;;;21.70;;
6937;SDS011;40040;42.706;23.372;2022-12-07T06:31:25;44.60;;;19.87;;
6937;SDS011;40040;42.706;23.372;2022-12-07T06:33:57;40.60;;;17.40;;
6937;SDS011;40040;42.706;23.372;2022-12-07T06:36:29;37.03;;;17.50;;
6937;SDS011;40040;42.706;23.372;2022-12-07T06:38:56;44.33;;;18.33;;
6937;SDS011;40040;42.706;23.372;2022-12-07T06:41:23;46.63;;;20.03;;
6937;SDS011;40040;42.706;23.372;2022-12-07T06:43:50;54.83;;;24.27;;
6937;SDS011;40040;42.706;23.372;2022-12-07T06:46:17;56.23;;;25.07;;
6937;SDS011;40040;42.706;23.372;2022-12-07T06:48:47;55.20;;;27.37;;
6937;SDS011;40040;42.706;23.372;2022-12-07T06:51:16;56.10;;;26.53;;
6937;SDS011;40040;42.706;23.372;2022-12-07T06:53:43;77.57;;;31.87;;
6937;SDS011;40040;42.706;23.372;2022-12-07T06:56:10;47.17;;;21.93;;
6937;SDS011;40040;42.706;23.372;2022-12-07T06:58:37;44.03;;;20.70;;
6937;SDS011;40040;42.706;23.372;2022-12-07T07:01:08;48.57;;;22.43;;
6937;SDS011;40040;42.706;23.372;2022-12-07T07:03:37;48.87;;;22.63;;
6937;SDS011;40040;42.706;23.372;2022-12-07T07:06:04;46.43;;;20.77;;
6937;SDS011;40040;42.706;23.372;2022-12-07T07:08:33;43.80;;;19.53;;
6937;SDS011;40040;42.706;23.372;2022-12-07T07:11:00;49.50;;;23.07;;
6937;SDS011;40040;42.706;23.372;2022-12-07T07:13:27;48.23;;;21.27;;
6937;SDS011;40040;42.706;23.372;2022-12-07T07:15:54;46.53;;;21.50;;
6937;SDS011;40040;42.706;23.372;2022-12-07T07:18:21;48.20;;;21.57;;
6937;SDS011;40040;42.706;23.372;2022-12-07T07:20:49;41.10;;;20.37;;
6937;SDS011;40040;42.706;23.372;2022-12-07T07:23:16;40.83;;;18.67;;
6937;SDS011;40040;42.706;23.372;2022-12-07T07:25:45;47.03;;;19.93;;
6937;SDS011;40040;42.706;23.372;2022-12-07T07:28:12;60.20;;;25.17;;
6937;SDS011;40040;42.706;23.372;2022-12-07T07:30:39;50.43;;;21.90;;
6937;SDS011;40040;42.706;23.372;2022-12-07T07:33:07;43.50;;;19.70;;
6937;SDS011;40040;42.706;23.372;2022-12-07T07:35:35;39.93;;;17.67;;
6937;SDS011;40040;42.706;23.372;2022-12-07T07:38:02;74.07;;;28.73;;
6937;SDS011;40040;42.706;23.372;2022-12-07T07:40:29;44.63;;;20.10;;
6937;SDS011;40040;42.706;23.372;2022-12-07T07:42:57;43.40;;;16.83;;
6937;SDS011;40040;42.706;23.372;2022-12-07T07:45:25;42.57;;;18.57;;
6937;SDS011;40040;42.706;23.372;2022-12-07T07:47:53;35.90;;;17.97;;
6937;SDS011;40040;42.706;23.372;2022-12-07T07:50:20;38.20;;;17.97;;
6937;SDS011;40040;42.706;23.372;2022-12-07T07:52:47;32.93;;;17.13;;
6937;SDS011;40040;42.706;23.372;2022-12-07T07:55:14;46.80;;;19.27;;
6937;SDS011;40040;42.706;23.372;2022-12-07T07:57:41;31.27;;;14.77;;
6937;SDS011;40040;42.706;23.372;2022-12-07T08:00:11;31.63;;;14.30;;
6937;SDS011;40040;42.706;23.372;2022-12-07T08:02:40;29.67;;;15.23;;
6937;SDS011;40040;42.706;23.372;2022-12-07T08:05:08;35.63;;;16.83;;
6937;SDS011;40040;42.706;23.372;2022-12-07T08:07:37;33.07;;;17.03;;
6937;SDS011;40040;42.706;23.372;2022-12-07T08:10:04;31.00;;;15.43;;
6937;SDS011;40040;42.706;23.372;2022-12-07T08:12:35;39.30;;;16.57;;
6937;SDS011;40040;42.706;23.372;2022-12-07T08:15:24;46.43;;;22.77;;
6937;SDS011;40040;42.706;23.372;2022-12-07T08:17:52;38.03;;;16.23;;
6937;SDS011;40040;42.706;23.372;2022-12-07T08:20:19;36.50;;;17.33;;
6937;SDS011;40040;42.706;23.372;2022-12-07T08:22:46;37.00;;;18.07;;
6937;SDS011;40040;42.706;23.372;2022-12-07T08:25:13;36.47;;;16.57;;
6937;SDS011;40040;42.706;23.372;2022-12-07T08:27:40;42.93;;;18.97;;
6937;SDS011;40040;42.706;23.372;2022-12-07T08:30:07;42.70;;;19.47;;
6937;SDS011;40040;42.706;23.372;2022-12-07T08:32:36;38.40;;;17.23;;
6937;SDS011;40040;42.706;23.372;2022-12-07T08:35:03;72.77;;;24.73;;
6937;SDS011;40040;42.706;23.372;2022-12-07T08:37:31;47.83;;;20.40;;
6937;SDS011;40040;42.706;23.372;2022-12-07T08:39:58;52.53;;;21.17;;
6937;SDS011;40040;42.706;23.372;2022-12-07T08:42:27;56.07;;;21.27;;
6937;SDS011;40040;42.706;23.372;2022-12-07T08:45:03;40.87;;;18.13;;
6937;SDS011;40040;42.706;23.372;2022-12-07T08:47:31;73.30;;;27.30;;
6937;SDS011;40040;42.706;23.372;2022-12-07T08:50:00;47.67;;;20.47;;
6937;SDS011;40040;42.706;23.372;2022-12-07T08:52:29;49.93;;;19.87;;
6937;SDS011;40040;42.706;23.372;2022-12-07T08:54:56;39.23;;;18.00;;
6937;SDS011;40040;42.706;23.372;2022-12-07T08:57:24;33.70;;;16.23;;
6937;SDS011;40040;42.706;23.372;2022-12-07T08:59:51;41.87;;;19.17;;
6937;SDS011;40040;42.706;23.372;2022-12-07T09:02:18;40.93;;;18.87;;
6937;SDS011;40040;42.706;23.372;2022-12-07T09:04:45;37.10;;;16.70;;
6937;SDS011;40040;42.706;23.372;2022-12-07T09:07:13;30.20;;;14.00;;
6937;SDS011;40040;42.706;23.372;2022-12-07T09:09:40;30.43;;;14.50;;
6937;SDS011;40040;42.706;23.372;2022-12-07T09:12:08;34.83;;;16.87;;
6937;SDS011;40040;42.706;23.372;2022-12-07T09:14:35;35.50;;;16.40;;
6937;SDS011;40040;42.706;23.372;2022-12-07T09:17:06;25.57;;;13.93;;
6937;SDS011;40040;42.706;23.372;2022-12-07T09:19:34;29.23;;;13.63;;
6937;SDS011;40040;42.706;23.372;2022-12-07T09:22:01;28.23;;;14.53;;
6937;SDS011;40040;42.706;23.372;2022-12-07T09:24:31;30.60;;;13.67;;
6937;SDS011;40040;42.706;23.372;2022-12-07T09:26:58;30.40;;;13.63;;
6937;SDS011;40040;42.706;23.372;2022-12-07T09:29:25;29.63;;;14.50;;
6937;SDS011;40040;42.706;23.372;2022-12-07T09:31:52;33.67;;;14.80;;
6937;SDS011;40040;42.706;23.372;2022-12-07T09:34:19;33.90;;;15.73;;
6937;SDS011;40040;42.706;23.372;2022-12-07T09:36:46;29.63;;;15.47;;
6937;SDS011;40040;42.706;23.372;2022-12-07T09:39:13;30.37;;;14.23;;
6937;SDS011;40040;42.706;23.372;2022-12-07T09:41:42;31.57;;;15.90;;
6937;SDS011;40040;42.706;23.372;2022-12-07T09:44:11;34.33;;;16.33;;
6937;SDS011;40040;42.706;23.372;2022-12-07T09:46:41;39.00;;;18.43;;
6937;SDS011;40040;42.706;23.372;2022-12-07T09:49:10;29.37;;;14.30;;
6937;SDS011;40040;42.706;23.372;2022-12-07T09:51:40;36.27;;;14.00;;
6937;SDS011;40040;42.706;23.372;2022-12-07T09:54:08;32.53;;;14.23;;
6937;SDS011;40040;42.706;23.372;2022-12-07T09:56:38;31.17;;;14.17;;
6937;SDS011;40040;42.706;23.372;2022-12-07T09:59:10;34.70;;;15.17;;
6937;SDS011;40040;42.706;23.372;2022-12-07T10:01:40;34.87;;;14.90;;
6937;SDS011;40040;42.706;23.372;2022-12-07T10:04:09;28.67;;;14.10;;
6937;SDS011;40040;42.706;23.372;2022-12-07T10:06:41;27.67;;;13.55;;
6937;SDS011;40040;42.706;23.372;2022-12-07T10:09:09;31.07;;;14.50;;
6937;SDS011;40040;42.706;23.372;2022-12-07T10:14:33;25.60;;;12.70;;
6937;SDS011;40040;42.706;23.372;2022-12-07T10:17:01;28.20;;;12.75;;
6937;SDS011;40040;42.706;23.372;2022-12-07T10:19:31;23.90;;;12.68;;
6937;SDS011;40040;42.706;23.372;2022-12-07T10:22:03;22.25;;;10.75;;
6937;SDS011;40040;42.706;23.372;2022-12-07T10:24:37;24.80;;;12.20;;
6937;SDS011;40040;42.706;23.372;2022-12-07T10:27:12;27.42;;;13.30;;
6937;SDS011;40040;42.706;23.372;2022-12-07T10:29:49;25.45;;;12.02;;
6937;SDS011;40040;42.706;23.372;2022-12-07T10:32:28;29.52;;;13.35;;
6937;SDS011;40040;42.706;23.372;2022-12-07T10:35:18;44.40;;;18.63;;
6937;SDS011;40040;42.706;23.372;2022-12-07T10:37:50;34.45;;;15.93;;
6937;SDS011;40040;42.706;23.372;2022-12-07T10:40:29;30.35;;;15.07;;
6937;SDS011;40040;42.706;23.372;2022-12-07T10:43:05;24.05;;;13.18;;
6937;SDS011;40040;42.706;23.372;2022-12-07T10:45:45;37.47;;;17.67;;
6937;SDS011;40040;42.706;23.372;2022-12-07T10:48:45;32.35;;;15.60;;
6937;SDS011;40040;42.706;23.372;2022-12-07T10:51:21;34.55;;;17.45;;
6937;SDS011;40040;42.706;23.372;2022-12-07T10:53:59;40.03;;;18.45;;
6937;SDS011;40040;42.706;23.372;2022-12-07T10:56:56;25.63;;;13.85;;
6937;SDS011;40040;42.706;23.372;2022-12-07T10:59:45;29.13;;;14.27;;
6937;SDS011;40040;42.706;23.372;2022-12-07T11:02:35;25.02;;;12.07;;
6937;SDS011;40040;42.706;23.372;2022-12-07T11:05:15;37.42;;;18.40;;
6937;SDS011;40040;42.706;23.372;2022-12-07T11:07:51;31.27;;;15.00;;
6937;SDS011;40040;42.706;23.372;2022-12-07T11:10:28;24.35;;;13.48;;
6937;SDS011;40040;42.706;23.372;2022-12-07T11:13:17;16.77;;;9.85;;
6937;SDS011;40040;42.706;23.372;2022-12-07T11:15:54;18.35;;;8.25;;
6937;SDS011;40040;42.706;23.372;2022-12-07T11:18:34;16.02;;;9.38;;
6937;SDS011;40040;42.706;23.372;2022-12-07T11:21:12;14.80;;;9.00;;
6937;SDS011;40040;42.706;23.372;2022-12-07T11:23:49;15.88;;;8.15;;
6937;SDS011;40040;42.706;23.372;2022-12-07T11:26:30;18.92;;;11.23;;
6937;SDS011;40040;42.706;23.372;2022-12-07T11:29:17;16.60;;;10.00;;
6937;SDS011;40040;42.706;23.372;2022-12-07T11:32:03;19.25;;;9.57;;
6937;SDS011;40040;42.706;23.372;2022-12-07T11:34:39;20.02;;;10.80;;
6937;SDS011;40040;42.706;23.372;2022-12-07T11:37:17;89.07;;;39.22;;
6937;SDS011;40040;42.706;23.372;2022-12-07T11:39:49;29.65;;;14.82;;
6937;SDS011;40040;42.706;23.372;2022-12-07T11:42:20;20.33;;;11.73;;
6937;SDS011;40040;42.706;23.372;2022-12-07T11:44:56;24.80;;;13.13;;
6937;SDS011;40040;42.706;23.372;2022-12-07T11:47:28;26.63;;;13.70;;
6937;SDS011;40040;42.706;23.372;2022-12-07T11:50:03;23.80;;;11.82;;
6937;SDS011;40040;42.706;23.372;2022-12-07T11:52:42;23.05;;;12.05;;
6937;SDS011;40040;42.706;23.372;2022-12-07T11:55:17;24.42;;;11.95;;
6937;SDS011;40040;42.706;23.372;2022-12-07T11:57:49;21.35;;;11.25;;
6937;SDS011;40040;42.706;23.372;2022-12-07T12:00:22;21.15;;;11.35;;
6937;SDS011;40040;42.706;23.372;2022-12-07T12:02:51;19.35;;;10.68;;
6937;SDS011;40040;42.706;23.372;2022-12-07T12:05:25;19.55;;;10.25;;
6937;SDS011;40040;42.706;23.372;2022-12-07T12:07:55;22.52;;;12.68;;
6937;SDS011;40040;42.706;23.372;2022-12-07T12:10:36;21.48;;;12.07;;
6937;SDS011;40040;42.706;23.372;2022-12-07T12:13:29;19.42;;;11.07;;
6937;SDS011;40040;42.706;23.372;2022-12-07T12:16:16;21.63;;;11.50;;
6937;SDS011;40040;42.706;23.372;2022-12-07T12:18:57;23.52;;;12.05;;
6937;SDS011;40040;42.706;23.372;2022-12-07T12:21:38;25.75;;;12.40;;
6937;SDS011;40040;42.706;23.372;2022-12-07T12:24:09;23.25;;;12.68;;
6937;SDS011;40040;42.706;23.372;2022-12-07T12:26:41;21.13;;;12.40;;
6937;SDS011;40040;42.706;23.372;2022-12-07T12:29:21;28.85;;;15.73;;
6937;SDS011;40040;42.706;23.372;2022-12-07T12:32:04;31.02;;;15.93;;
6937;SDS011;40040;42.706;23.372;2022-12-07T12:34:38;49.65;;;22.95;;
6937;SDS011;40040;42.706;23.372;2022-12-07T12:58:43;27.45;;;16.15;;
6937;SDS011;40040;42.706;23.372;2022-12-07T13:01:36;26.65;;;14.15;;
6937;SDS011;40040;42.706;23.372;2022-12-07T13:04:23;22.80;;;11.60;;
6937;SDS011;40040;42.706;23.372;2022-12-07T13:06:53;19.88;;;9.68;;
6937;SDS011;40040;42.706;23.372;2022-12-07T13:09:24;19.83;;;10.40;;
6937;SDS011;40040;42.706;23.372;2022-12-07T13:12:01;23.15;;;12.35;;
6937;SDS011;40040;42.706;23.372;2022-12-07T13:20:42;25.98;;;14.05;;
6937;SDS011;40040;42.706;23.372;2022-12-07T13:23:23;21.90;;;13.63;;
6937;SDS011;40040;42.706;23.372;2022-12-07T13:26:09;24.00;;;12.82;;
6937;SDS011;40040;42.706;23.372;2022-12-07T13:28:44;19.80;;;10.73;;
6937;SDS011;40040;42.706;23.372;2022-12-07T13:36:55;18.38;;;10.68;;
6937;SDS011;40040;42.706;23.372;2022-12-07T13:39:24;25.73;;;12.60;;
6937;SDS011;40040;42.706;23.372;2022-12-07T13:41:55;22.02;;;11.50;;
6937;SDS011;40040;42.706;23.372;2022-12-07T13:44:27;18.38;;;11.20;;
6937;SDS011;40040;42.706;23.372;2022-12-07T13:47:10;24.05;;;11.85;;
6937;SDS011;40040;42.706;23.372;2022-12-07T13:49:46;19.23;;;10.77;;
6937;SDS011;40040;42.706;23.372;2022-12-07T13:52:18;25.75;;;12.95;;
6937;SDS011;40040;42.706;23.372;2022-12-07T13:54:47;28.35;;;14.48;;
6937;SDS011;40040;42.706;23.372;2022-12-07T13:57:15;25.65;;;13.93;;
6937;SDS011;40040;42.706;23.372;2022-12-07T13:59:47;27.77;;;14.88;;
6937;SDS011;40040;42.706;23.372;2022-12-07T14:02:18;27.30;;;13.43;;
6937;SDS011;40040;42.706;23.372;2022-12-07T14:04:48;26.88;;;13.27;;
6937;SDS011;40040;42.706;23.372;2022-12-07T14:07:21;24.38;;;12.50;;
6937;SDS011;40040;42.706;23.372;2022-12-07T14:09:54;26.70;;;14.32;;
6937;SDS011;40040;42.706;23.372;2022-12-07T14:12:22;27.75;;;14.25;;
6937;SDS011;40040;42.706;23.372;2022-12-07T14:14:51;26.25;;;12.73;;
6937;SDS011;40040;42.706;23.372;2022-12-07T14:17:20;23.77;;;11.18;;
6937;SDS011;40040;42.706;23.372;2022-12-07T14:19:50;24.08;;;10.93;;
6937;SDS011;40040;42.706;23.372;2022-12-07T14:22:27;22.90;;;12.18;;
6937;SDS011;40040;42.706;23.372;2022-12-07T14:27:52;25.50;;;13.35;;
6937;SDS011;40040;42.706;23.372;2022-12-07T14:30:25;23.10;;;13.38;;
6937;SDS011;40040;42.706;23.372;2022-12-07T14:32:54;29.45;;;14.05;;
6937;SDS011;40040;42.706;23.372;2022-12-07T14:35:23;24.58;;;12.82;;
6937;SDS011;40040;42.706;23.372;2022-12-07T14:37:50;26.30;;;12.93;;
6937;SDS011;40040;42.706;23.372;2022-12-07T14:40:18;28.88;;;14.35;;
6937;SDS011;40040;42.706;23.372;2022-12-07T14:42:47;32.47;;;15.30;;
6937;SDS011;40040;42.706;23.372;2022-12-07T14:45:18;42.05;;;17.58;;
6937;SDS011;40040;42.706;23.372;2022-12-07T14:47:50;40.53;;;19.27;;
6937;SDS011;40040;42.706;23.372;2022-12-07T14:50:19;41.53;;;22.38;;
6937;SDS011;40040;42.706;23.372;2022-12-07T14:52:50;35.45;;;17.08;;
6937;SDS011;40040;42.706;23.372;2022-12-07T14:58:01;39.42;;;18.55;;
6937;SDS011;40040;42.706;23.372;2022-12-07T15:00:33;41.38;;;20.20;;
6937;SDS011;40040;42.706;23.372;2022-12-07T15:03:09;35.85;;;18.00;;
6937;SDS011;40040;42.706;23.372;2022-12-07T15:05:38;34.65;;;16.60;;
6937;SDS011;40040;42.706;23.372;2022-12-07T15:08:20;36.63;;;16.58;;
6937;SDS011;40040;42.706;23.372;2022-12-07T15:10:48;38.15;;;18.60;;
6937;SDS011;40040;42.706;23.372;2022-12-07T15:13:16;40.97;;;17.98;;
6937;SDS011;40040;42.706;23.372;2022-12-07T15:16:10;37.35;;;17.80;;
6937;SDS011;40040;42.706;23.372;2022-12-07T15:18:47;70.22;;;37.03;;
6937;SDS011;40040;42.706;23.372;2022-12-07T15:21:18;58.30;;;29.15;;
6937;SDS011;40040;42.706;23.372;2022-12-07T15:23:45;51.80;;;29.08;;
6937;SDS011;40040;42.706;23.372;2022-12-07T15:26:13;62.17;;;28.85;;
6937;SDS011;40040;42.706;23.372;2022-12-07T15:28:41;71.25;;;32.88;;
6937;SDS011;40040;42.706;23.372;2022-12-07T15:31:10;81.60;;;34.05;;
6937;SDS011;40040;42.706;23.372;2022-12-07T15:33:37;79.35;;;34.67;;
6937;SDS011;40040;42.706;23.372;2022-12-07T15:36:06;93.88;;;38.28;;
6937;SDS011;40040;42.706;23.372;2022-12-07T15:38:34;88.75;;;37.70;;